North Woodbury, Ohio
Current Conditions -  °F | °C
As of 11:52 AM on Thursday 30 Oct 2014 (Local Time) from KMFD Reporting Station
Scattered Clouds Scattered Clouds  
Wind Chill: 47°   Ceiling: Unl
Heat Index: 47°   Visibility: 10mi
Dew Point: 37°   Wind: 3mph
Humidity: 68%   Direction: 320°NW
Pressure: 30.14"   Gusts: NA
Location:  40.5997°N, 82.5303°W
Report Text: KMFD 301552Z 32003KT 10SM FEW017 SCT021 SCT026 08/03 A3014 RMK AO2 SLP211 T00830028
Loading
Personal Weather Stations






























Interactive Weather Map
Tropical Storm Tracking
New forecast layout! Learn more

10-Day Weather Forecast

Advertisements
Track Severe Weather on mobile